Time;durP1;ratioP1;P1;durP2;ratioP2;P2;SDS_P1;SDS_P2;PMS_P1;PMS_P2;Temp;Humidity;BMP_temperature;BMP_pressure;BME280_temperature;BME280_humidity;BME280_pressure;Samples;Min_cycle;Max_cycle;Signal;HPM_P1;HPM_P2
2022/03/06 00:00:37;;;;;;;17.80;7.80;;;;;;;;;;5053145;28;20455;-76
2022/03/06 00:03:04;;;;;;;16.52;10.35;;;;;;;;;;5036878;28;20099;-75
2022/03/06 00:05:30;;;;;;;18.70;9.25;;;;;;;;;;5053410;28;20041;-75
2022/03/06 00:07:59;;;;;;;14.45;8.45;;;;;;;;;;5053005;28;20049;-76
2022/03/06 00:10:25;;;;;;;13.48;7.72;;;;;;;;;;5036443;28;20060;-76
2022/03/06 00:12:51;;;;;;;17.60;9.13;;;;;;;;;;5053263;28;20525;-76
2022/03/06 00:15:18;;;;;;;18.42;9.90;;;;;;;;;;5053086;28;20052;-77
2022/03/06 00:17:44;;;;;;;16.15;4.93;;;;;;;;;;5053121;28;20389;-77
2022/03/06 00:20:10;;;;;;;12.20;6.93;;;;;;;;;;5052811;28;20098;-76
2022/03/06 00:22:37;;;;;;;12.50;6.13;;;;;;;;;;5052813;28;20124;-77
2022/03/06 00:25:04;;;;;;;16.33;8.23;;;;;;;;;;5052953;28;20036;-76
2022/03/06 00:27:30;;;;;;;17.77;9.52;;;;;;;;;;5036450;28;20041;-76
2022/03/06 00:29:56;;;;;;;17.52;8.98;;;;;;;;;;5036248;28;20037;-76
2022/03/06 00:32:22;;;;;;;15.93;8.20;;;;;;;;;;5052640;28;20405;-77
2022/03/06 00:34:48;;;;;;;14.35;6.13;;;;;;;;;;5052996;28;20037;-77
2022/03/06 00:37:14;;;;;;;6.03;4.72;;;;;;;;;;5036058;28;20047;-76
2022/03/06 00:39:40;;;;;;;5.25;2.55;;;;;;;;;;5052462;28;20044;-76
2022/03/06 00:42:07;;;;;;;14.65;8.05;;;;;;;;;;5036051;28;20572;-77
2022/03/06 00:44:33;;;;;;;4.25;2.85;;;;;;;;;;5035879;28;20541;-77
2022/03/06 00:46:59;;;;;;;12.27;6.65;;;;;;;;;;5035843;28;20037;-77
2022/03/06 00:49:25;;;;;;;19.38;7.43;;;;;;;;;;5035902;28;20041;-76
2022/03/06 00:51:51;;;;;;;8.73;5.07;;;;;;;;;;5035540;28;20558;-76
2022/03/06 00:54:17;;;;;;;13.85;8.13;;;;;;;;;;5035723;28;20511;-77
2022/03/06 00:56:43;;;;;;;11.32;6.78;;;;;;;;;;5052087;28;20041;-77
2022/03/06 00:59:09;;;;;;;8.30;4.90;;;;;;;;;;5052139;28;20048;-78
2022/03/06 01:01:35;;;;;;;7.47;3.60;;;;;;;;;;5035858;28;20033;-78
2022/03/06 01:04:01;;;;;;;7.63;5.72;;;;;;;;;;5035867;28;20044;-77
2022/03/06 01:06:27;;;;;;;7.38;4.93;;;;;;;;;;5052016;28;20127;-78
2022/03/06 01:08:53;;;;;;;7.57;3.75;;;;;;;;;;5051960;28;20048;-79
2022/03/06 01:11:20;;;;;;;7.75;3.58;;;;;;;;;;5035297;28;20413;-79
2022/03/06 01:13:46;;;;;;;7.10;4.65;;;;;;;;;;5035571;28;20098;-78
2022/03/06 01:16:14;;;;;;;9.00;5.88;;;;;;;;;;5052293;28;20044;-77
2022/03/06 01:18:40;;;;;;;4.20;3.33;;;;;;;;;;5035256;28;20498;-76
2022/03/06 01:21:06;;;;;;;16.23;6.50;;;;;;;;;;5052074;28;20032;-77
2022/03/06 01:23:33;;;;;;;7.88;4.38;;;;;;;;;;5035496;28;20044;-77
2022/03/06 01:25:59;;;;;;;9.95;6.10;;;;;;;;;;5051722;28;20044;-79
2022/03/06 01:28:25;;;;;;;11.68;6.05;;;;;;;;;;5051624;28;20382;-77
2022/03/06 01:30:51;;;;;;;9.68;5.30;;;;;;;;;;5051630;28;20123;-76
2022/03/06 01:33:17;;;;;;;9.95;6.30;;;;;;;;;;5051501;28;20048;-77
2022/03/06 01:35:43;;;;;;;14.07;6.82;;;;;;;;;;5051668;28;20561;-77
2022/03/06 01:38:09;;;;;;;5.05;2.28;;;;;;;;;;5034885;28;20080;-78
2022/03/06 01:40:35;;;;;;;8.27;2.60;;;;;;;;;;5034883;28;20518;-77
2022/03/06 01:43:01;;;;;;;8.98;4.82;;;;;;;;;;5051181;28;20170;-77
2022/03/06 01:45:27;;;;;;;4.85;2.60;;;;;;;;;;5034554;28;20079;-77
2022/03/06 01:47:54;;;;;;;8.20;5.22;;;;;;;;;;5034873;28;20106;-79
2022/03/06 01:50:25;;;;;;;5.72;3.83;;;;;;;;;;5051186;28;20509;-79
2022/03/06 01:52:52;;;;;;;8.38;4.28;;;;;;;;;;5034761;28;20048;-78
2022/03/06 01:55:19;;;;;;;5.57;3.28;;;;;;;;;;5050932;28;20915;-78
2022/03/06 01:57:45;;;;;;;9.95;5.50;;;;;;;;;;5034363;28;20060;-77
2022/03/06 02:00:13;;;;;;;4.28;3.05;;;;;;;;;;5034481;28;20075;-80
2022/03/06 02:02:40;;;;;;;4.88;3.55;;;;;;;;;;5034276;28;20071;-78
2022/03/06 02:05:06;;;;;;;7.03;4.28;;;;;;;;;;5034085;28;20102;-77
2022/03/06 02:07:32;;;;;;;8.48;2.72;;;;;;;;;;5034509;28;20048;-78
2022/03/06 02:09:58;;;;;;;6.78;3.85;;;;;;;;;;5034097;28;20041;-79
2022/03/06 02:12:26;;;;;;;11.43;4.22;;;;;;;;;;5034421;28;20037;-79
2022/03/06 02:14:52;;;;;;;6.18;3.92;;;;;;;;;;5034257;28;20147;-76
2022/03/06 02:17:18;;;;;;;6.95;4.40;;;;;;;;;;5034070;28;20436;-78
2022/03/06 02:19:58;;;;;;;6.30;3.22;;;;;;;;;;5050961;28;20048;-78
2022/03/06 02:22:26;;;;;;;8.77;5.80;;;;;;;;;;5050692;28;20045;-78
2022/03/06 02:24:52;;;;;;;10.18;5.47;;;;;;;;;;5034029;28;20033;-77
2022/03/06 02:27:18;;;;;;;12.43;6.88;;;;;;;;;;5050854;28;20045;-75
2022/03/06 02:29:44;;;;;;;5.80;4.35;;;;;;;;;;5034001;28;20053;-74
2022/03/06 02:32:11;;;;;;;6.25;3.70;;;;;;;;;;5034246;28;20044;-76
2022/03/06 02:34:42;;;;;;;4.07;3.03;;;;;;;;;;5034560;28;20045;-76
2022/03/06 02:37:08;;;;;;;5.95;3.38;;;;;;;;;;5050621;28;20047;-73
2022/03/06 02:39:34;;;;;;;11.32;7.15;;;;;;;;;;5050749;28;20498;-76
2022/03/06 02:42:01;;;;;;;8.10;5.43;;;;;;;;;;5033680;28;20036;-77
2022/03/06 02:44:28;;;;;;;7.13;4.07;;;;;;;;;;5050578;28;20037;-79
2022/03/06 02:46:54;;;;;;;7.07;4.30;;;;;;;;;;5034030;28;20067;-78
2022/03/06 02:49:20;;;;;;;4.32;3.28;;;;;;;;;;5050212;28;20490;-78
2022/03/06 02:51:46;;;;;;;5.82;3.80;;;;;;;;;;5034020;28;20037;-77
2022/03/06 02:54:13;;;;;;;8.45;4.15;;;;;;;;;;5033641;28;20409;-78
2022/03/06 02:56:40;;;;;;;4.07;2.90;;;;;;;;;;5033673;28;20106;-78
2022/03/06 02:59:06;;;;;;;3.28;2.65;;;;;;;;;;5033536;28;20119;-78
2022/03/06 03:01:37;;;;;;;7.78;4.30;;;;;;;;;;5033704;28;20127;-77
2022/03/06 03:04:04;;;;;;;5.97;3.47;;;;;;;;;;5050008;28;20079;-79
2022/03/06 03:06:30;;;;;;;3.97;2.70;;;;;;;;;;5050357;28;20558;-77
2022/03/06 03:08:56;;;;;;;7.93;4.88;;;;;;;;;;5033512;28;20401;-79
2022/03/06 03:11:22;;;;;;;3.67;2.88;;;;;;;;;;5033462;28;20057;-79
2022/03/06 03:13:48;;;;;;;4.97;3.15;;;;;;;;;;5033678;28;20055;-78
2022/03/06 03:16:14;;;;;;;5.82;3.92;;;;;;;;;;5037417;28;20057;-78
2022/03/06 03:18:40;;;;;;;6.20;4.88;;;;;;;;;;5037466;28;20052;-76
2022/03/06 03:21:06;;;;;;;7.53;3.45;;;;;;;;;;5037454;28;20056;-78
2022/03/06 03:23:32;;;;;;;9.63;4.95;;;;;;;;;;5054257;28;20481;-77
2022/03/06 03:25:58;;;;;;;6.95;4.38;;;;;;;;;;5037451;28;20091;-77
2022/03/06 03:28:24;;;;;;;5.50;3.50;;;;;;;;;;5037440;28;20493;-79
2022/03/06 03:30:50;;;;;;;10.50;5.70;;;;;;;;;;5037501;28;20049;-77
2022/03/06 03:33:16;;;;;;;6.43;4.60;;;;;;;;;;5053612;28;20408;-78
2022/03/06 03:35:42;;;;;;;6.32;3.90;;;;;;;;;;5036907;28;20117;-79
2022/03/06 03:38:08;;;;;;;7.32;4.60;;;;;;;;;;5037110;28;20471;-75
2022/03/06 03:40:34;;;;;;;7.60;5.72;;;;;;;;;;5053836;28;20040;-76
2022/03/06 03:42:59;;;;;;;7.82;5.28;;;;;;;;;;5053830;28;20037;-76
2022/03/06 03:45:25;;;;;;;7.28;4.32;;;;;;;;;;5053539;28;20037;-76
2022/03/06 03:47:51;;;;;;;7.82;5.28;;;;;;;;;;5036962;28;20044;-76
2022/03/06 03:50:17;;;;;;;7.65;4.70;;;;;;;;;;5053657;28;20084;-76
2022/03/06 03:52:43;;;;;;;9.73;5.68;;;;;;;;;;5037057;28;20037;-75
2022/03/06 03:55:09;;;;;;;6.43;4.07;;;;;;;;;;5053552;28;20041;-76
2022/03/06 03:57:35;;;;;;;11.75;5.85;;;;;;;;;;5053614;28;20048;-75
2022/03/06 04:00:01;;;;;;;9.75;5.53;;;;;;;;;;5036916;28;20036;-76
2022/03/06 04:02:28;;;;;;;9.55;4.63;;;;;;;;;;5053122;28;20091;-76
2022/03/06 04:04:54;;;;;;;11.10;6.30;;;;;;;;;;5053316;28;20429;-76
2022/03/06 04:07:20;;;;;;;9.05;5.05;;;;;;;;;;5053511;28;20044;-76
2022/03/06 04:09:46;;;;;;;8.73;5.15;;;;;;;;;;5053230;28;20044;-76
2022/03/06 04:12:12;;;;;;;3.50;3.00;;;;;;;;;;5053322;28;20052;-78
2022/03/06 04:14:38;;;;;;;3.42;2.20;;;;;;;;;;5036523;28;20580;-77
2022/03/06 04:17:04;;;;;;;9.15;5.28;;;;;;;;;;5036448;28;20079;-77
2022/03/06 04:19:30;;;;;;;9.10;5.00;;;;;;;;;;5052937;28;20044;-77
2022/03/06 04:21:56;;;;;;;9.13;4.82;;;;;;;;;;5053075;28;20127;-76
2022/03/06 04:24:22;;;;;;;6.55;3.88;;;;;;;;;;5036614;28;20370;-77
2022/03/06 04:26:48;;;;;;;7.18;4.15;;;;;;;;;;5035838;28;20048;-76
2022/03/06 04:29:14;;;;;;;10.18;4.80;;;;;;;;;;5053039;28;20049;-76
2022/03/06 04:31:40;;;;;;;6.53;3.45;;;;;;;;;;5036371;28;20045;-75
2022/03/06 04:34:06;;;;;;;4.60;3.40;;;;;;;;;;5052848;28;20044;-77
2022/03/06 04:36:32;;;;;;;6.43;3.42;;;;;;;;;;5052665;28;20052;-78
2022/03/06 04:38:58;;;;;;;7.97;4.57;;;;;;;;;;5036345;28;20602;-75
2022/03/06 04:41:24;;;;;;;3.28;1.75;;;;;;;;;;5035884;28;20044;-77
2022/03/06 04:43:52;;;;;;;3.08;2.30;;;;;;;;;;5035779;28;20033;-78
2022/03/06 04:46:18;;;;;;;4.13;2.53;;;;;;;;;;5052479;28;20044;-76
2022/03/06 04:48:44;;;;;;;7.93;4.00;;;;;;;;;;5035734;28;20488;-77
2022/03/06 04:51:10;;;;;;;2.63;2.17;;;;;;;;;;5052416;28;20045;-78
2022/03/06 04:53:36;;;;;;;5.35;2.70;;;;;;;;;;5035964;28;20485;-77
2022/03/06 04:56:03;;;;;;;4.65;2.53;;;;;;;;;;5035636;28;20048;-76
2022/03/06 04:58:29;;;;;;;8.80;3.42;;;;;;;;;;5052263;28;20077;-77
2022/03/06 05:00:55;;;;;;;6.65;4.00;;;;;;;;;;5052333;28;20051;-75
2022/03/06 05:03:22;;;;;;;3.90;3.13;;;;;;;;;;5035526;28;20041;-77
2022/03/06 05:05:47;;;;;;;2.97;2.17;;;;;;;;;;5035681;28;20043;-76
2022/03/06 05:08:13;;;;;;;6.78;3.42;;;;;;;;;;5035689;28;20048;-76
2022/03/06 05:10:39;;;;;;;8.60;4.68;;;;;;;;;;5035317;28;20067;-75
2022/03/06 05:13:05;;;;;;;6.43;3.35;;;;;;;;;;5051830;28;20127;-76
2022/03/06 05:15:32;;;;;;;6.18;4.05;;;;;;;;;;5052129;28;20048;-75
2022/03/06 05:17:58;;;;;;;7.03;3.97;;;;;;;;;;5035207;28;20036;-75
2022/03/06 05:20:24;;;;;;;2.92;2.25;;;;;;;;;;5051878;28;20041;-76
2022/03/06 05:22:50;;;;;;;3.65;2.42;;;;;;;;;;5035227;28;20167;-76
2022/03/06 05:25:16;;;;;;;6.28;3.88;;;;;;;;;;5035229;28;20158;-76
2022/03/06 05:27:42;;;;;;;6.03;3.30;;;;;;;;;;5034990;28;20132;-78
2022/03/06 05:30:09;;;;;;;4.65;2.80;;;;;;;;;;5034979;28;20043;-76
2022/03/06 05:32:35;;;;;;;5.20;3.40;;;;;;;;;;5051910;28;20045;-77
2022/03/06 05:35:01;;;;;;;3.45;1.92;;;;;;;;;;5051613;28;20033;-77
2022/03/06 05:37:27;;;;;;;7.78;3.30;;;;;;;;;;5034527;28;20045;-76
2022/03/06 05:39:53;;;;;;;10.55;4.15;;;;;;;;;;5034206;28;20103;-77
2022/03/06 05:42:19;;;;;;;6.60;3.92;;;;;;;;;;5051350;28;20083;-76
2022/03/06 05:44:45;;;;;;;8.43;4.07;;;;;;;;;;5034679;28;20037;-76
2022/03/06 05:47:11;;;;;;;5.60;3.30;;;;;;;;;;5051566;28;20311;-75
2022/03/06 05:49:37;;;;;;;6.47;3.50;;;;;;;;;;5051203;28;20120;-76
2022/03/06 05:52:03;;;;;;;4.53;2.97;;;;;;;;;;5034857;28;20128;-75
2022/03/06 05:54:30;;;;;;;5.50;3.75;;;;;;;;;;5051171;28;20083;-76
2022/03/06 05:56:56;;;;;;;5.40;2.30;;;;;;;;;;5050931;28;20048;-76
2022/03/06 05:59:22;;;;;;;5.75;3.47;;;;;;;;;;5034437;28;20033;-76
2022/03/06 06:01:48;;;;;;;4.18;1.90;;;;;;;;;;5034493;28;20060;-75
2022/03/06 06:04:14;;;;;;;1.33;1.23;;;;;;;;;;5034280;28;20040;-77
2022/03/06 06:06:40;;;;;;;1.98;1.20;;;;;;;;;;5051035;28;20045;-77
2022/03/06 06:09:06;;;;;;;3.80;1.98;;;;;;;;;;5034646;28;20041;-78
2022/03/06 06:11:32;;;;;;;4.90;1.20;;;;;;;;;;5050707;28;20053;-77
2022/03/06 06:13:58;;;;;;;2.58;1.45;;;;;;;;;;5050750;28;20045;-77
2022/03/06 06:16:24;;;;;;;4.30;2.10;;;;;;;;;;5034230;28;20481;-77
2022/03/06 06:18:50;;;;;;;7.20;3.60;;;;;;;;;;5034116;28;20036;-76
2022/03/06 06:21:18;;;;;;;4.03;2.75;;;;;;;;;;5050610;28;20040;-77
2022/03/06 06:23:45;;;;;;;4.78;2.72;;;;;;;;;;5050455;28;20082;-77
2022/03/06 06:26:11;;;;;;;1.35;1.25;;;;;;;;;;5050804;28;20044;-77
2022/03/06 06:28:37;;;;;;;2.05;1.88;;;;;;;;;;5050743;28;20091;-77
2022/03/06 06:31:03;;;;;;;2.10;1.15;;;;;;;;;;5033760;28;20691;-77
2022/03/06 06:33:29;;;;;;;1.85;1.23;;;;;;;;;;5050417;28;20405;-77
2022/03/06 06:35:55;;;;;;;6.90;2.72;;;;;;;;;;5050192;28;20037;-76
2022/03/06 06:38:21;;;;;;;3.10;2.05;;;;;;;;;;5033845;28;20504;-76
2022/03/06 06:40:48;;;;;;;3.92;2.45;;;;;;;;;;5050315;28;20072;-76
2022/03/06 06:43:14;;;;;;;5.85;3.33;;;;;;;;;;5034042;28;20124;-76
2022/03/06 06:45:40;;;;;;;3.17;2.13;;;;;;;;;;5033676;28;20140;-76
2022/03/06 06:48:06;;;;;;;5.60;3.30;;;;;;;;;;5033625;28;20033;-76
2022/03/06 06:50:33;;;;;;;3.45;2.28;;;;;;;;;;5031870;28;20073;-77
2022/03/06 06:52:58;;;;;;;1.02;0.98;;;;;;;;;;5046994;28;20047;-77
2022/03/06 06:55:24;;;;;;;3.47;2.60;;;;;;;;;;5046174;28;20041;-76
2022/03/06 06:57:50;;;;;;;3.17;2.33;;;;;;;;;;5046662;28;20044;-77
2022/03/06 07:00:16;;;;;;;3.55;1.88;;;;;;;;;;5046930;28;20048;-77
2022/03/06 07:02:43;;;;;;;1.48;1.05;;;;;;;;;;5030355;28;20045;-77
2022/03/06 07:05:09;;;;;;;2.55;2.10;;;;;;;;;;5030071;28;20595;-77
2022/03/06 07:07:35;;;;;;;5.55;3.10;;;;;;;;;;5046248;28;20573;-76
2022/03/06 07:10:02;;;;;;;2.20;1.50;;;;;;;;;;5029987;28;20048;-75
2022/03/06 07:12:28;;;;;;;4.93;2.60;;;;;;;;;;5046586;28;20578;-77
2022/03/06 07:14:54;;;;;;;8.77;4.30;;;;;;;;;;5030375;28;20190;-75
2022/03/06 07:17:20;;;;;;;4.88;2.47;;;;;;;;;;5029932;28;20470;-76
2022/03/06 07:19:46;;;;;;;2.85;1.60;;;;;;;;;;5029433;28;20045;-78
2022/03/06 07:22:12;;;;;;;4.03;3.00;;;;;;;;;;5029983;28;20041;-76
2022/03/06 07:24:38;;;;;;;9.93;3.40;;;;;;;;;;5029982;28;20102;-75
2022/03/06 07:27:04;;;;;;;5.22;3.38;;;;;;;;;;5046295;28;20049;-76
2022/03/06 07:29:30;;;;;;;3.55;2.88;;;;;;;;;;5029541;28;20041;-76
2022/03/06 07:31:56;;;;;;;2.25;1.83;;;;;;;;;;5045775;28;20048;-76
2022/03/06 07:34:22;;;;;;;5.20;3.55;;;;;;;;;;5039845;28;20447;-76
2022/03/06 07:36:48;;;;;;;6.00;3.53;;;;;;;;;;5066304;28;20051;-75
2022/03/06 07:39:15;;;;;;;1.83;1.60;;;;;;;;;;5066335;28;20047;-76
2022/03/06 07:41:41;;;;;;;5.75;3.88;;;;;;;;;;5066059;28;20544;-75
2022/03/06 07:44:07;;;;;;;4.85;2.90;;;;;;;;;;5049269;28;20041;-76
2022/03/06 07:46:33;;;;;;;4.43;3.15;;;;;;;;;;5049471;28;20151;-75
2022/03/06 07:48:59;;;;;;;13.13;4.57;;;;;;;;;;5049659;28;20131;-75
2022/03/06 07:51:25;;;;;;;8.02;3.38;;;;;;;;;;5049556;28;20473;-76
2022/03/06 07:53:51;;;;;;;4.03;2.67;;;;;;;;;;5066024;28;20044;-76
2022/03/06 07:56:16;;;;;;;9.98;4.43;;;;;;;;;;5065804;28;20062;-76
2022/03/06 07:58:42;;;;;;;9.15;4.10;;;;;;;;;;5066189;28;20040;-77
2022/03/06 08:01:08;;;;;;;6.75;3.95;;;;;;;;;;5049586;28;20400;-75
2022/03/06 08:03:34;;;;;;;4.60;2.80;;;;;;;;;;5072819;28;20123;-77
2022/03/06 08:06:00;;;;;;;4.55;3.03;;;;;;;;;;5057254;28;20524;-76
2022/03/06 08:08:26;;;;;;;10.00;4.93;;;;;;;;;;5057033;28;20382;-74
2022/03/06 08:10:52;;;;;;;15.30;6.22;;;;;;;;;;5073669;28;20163;-75
2022/03/06 08:13:18;;;;;;;7.38;3.65;;;;;;;;;;5056427;28;20036;-75
2022/03/06 08:15:44;;;;;;;8.73;3.50;;;;;;;;;;5056496;28;20040;-76
2022/03/06 08:18:10;;;;;;;11.45;5.93;;;;;;;;;;5056495;28;20040;-75
2022/03/06 08:20:36;;;;;;;11.45;4.47;;;;;;;;;;5073247;28;20033;-76
2022/03/06 08:23:02;;;;;;;18.73;6.75;;;;;;;;;;5073137;28;20037;-76
2022/03/06 08:25:28;;;;;;;12.27;5.05;;;;;;;;;;5056394;28;20037;-77
2022/03/06 08:27:54;;;;;;;12.98;5.97;;;;;;;;;;5072944;28;20037;-76
2022/03/06 08:30:20;;;;;;;4.78;3.08;;;;;;;;;;5056370;28;20097;-75
2022/03/06 08:32:46;;;;;;;8.20;4.78;;;;;;;;;;5056039;28;20036;-76
2022/03/06 08:35:12;;;;;;;6.57;3.90;;;;;;;;;;5056083;28;20036;-75
2022/03/06 08:37:38;;;;;;;4.82;3.22;;;;;;;;;;5055908;28;20036;-76
2022/03/06 08:40:05;;;;;;;5.82;3.20;;;;;;;;;;5072564;28;20424;-76
2022/03/06 08:42:31;;;;;;;9.68;3.95;;;;;;;;;;5072898;28;20086;-76
2022/03/06 08:44:56;;;;;;;7.10;3.97;;;;;;;;;;5055896;28;20044;-75
2022/03/06 08:47:22;;;;;;;4.32;2.83;;;;;;;;;;5072807;28;20051;-76
2022/03/06 08:49:48;;;;;;;5.10;3.50;;;;;;;;;;5072579;28;20101;-75
2022/03/06 08:52:14;;;;;;;5.35;3.28;;;;;;;;;;5055796;28;20045;-75
2022/03/06 08:54:40;;;;;;;8.10;4.45;;;;;;;;;;5055742;28;20040;-76
2022/03/06 08:57:06;;;;;;;5.97;2.95;;;;;;;;;;5055423;28;20040;-77
2022/03/06 08:59:32;;;;;;;4.20;2.75;;;;;;;;;;5072291;28;20500;-75
2022/03/06 09:01:58;;;;;;;7.18;5.38;;;;;;;;;;5072406;28;20135;-76
2022/03/06 09:04:24;;;;;;;3.30;2.85;;;;;;;;;;5072191;28;20040;-76
2022/03/06 09:06:51;;;;;;;3.92;3.42;;;;;;;;;;5072523;28;20054;-76
2022/03/06 09:09:17;;;;;;;3.80;2.95;;;;;;;;;;5072353;28;20044;-76
2022/03/06 09:11:45;;;;;;;4.88;2.72;;;;;;;;;;5071819;28;20060;-74
2022/03/06 09:14:11;;;;;;;3.95;2.30;;;;;;;;;;5055093;28;20056;-77
2022/03/06 09:16:37;;;;;;;6.18;2.97;;;;;;;;;;5072043;28;20127;-76
2022/03/06 09:19:03;;;;;;;4.03;2.45;;;;;;;;;;5055350;28;20123;-77
2022/03/06 09:21:29;;;;;;;3.55;2.10;;;;;;;;;;5056310;28;20481;-76
2022/03/06 09:23:55;;;;;;;2.40;1.85;;;;;;;;;;5056814;28;20044;-78
2022/03/06 09:26:21;;;;;;;2.92;1.67;;;;;;;;;;5072625;28;20559;-76
2022/03/06 09:28:47;;;;;;;3.05;2.40;;;;;;;;;;5056031;28;20040;-76
2022/03/06 09:31:13;;;;;;;3.70;2.38;;;;;;;;;;5054981;28;20047;-76
2022/03/06 09:33:39;;;;;;;3.95;2.42;;;;;;;;;;5055566;28;20040;-76
2022/03/06 09:36:05;;;;;;;2.63;2.40;;;;;;;;;;5071789;28;20040;-75
2022/03/06 09:38:31;;;;;;;5.55;2.53;;;;;;;;;;5071297;28;20040;-76
2022/03/06 09:41:00;;;;;;;3.70;2.75;;;;;;;;;;5071320;28;20412;-76
2022/03/06 09:43:26;;;;;;;3.90;2.42;;;;;;;;;;5071857;28;20500;-78
2022/03/06 09:45:59;;;;;;;2.60;1.38;;;;;;;;;;5071712;28;20041;-77
2022/03/06 09:48:25;;;;;;;2.72;2.33;;;;;;;;;;5071736;28;20082;-81
2022/03/06 09:50:51;;;;;;;3.42;2.33;;;;;;;;;;5055216;28;20465;-78
2022/03/06 09:53:17;;;;;;;2.78;1.98;;;;;;;;;;5071326;28;20123;-77
2022/03/06 09:55:43;;;;;;;2.00;1.80;;;;;;;;;;5054933;28;20151;-78
2022/03/06 09:58:10;;;;;;;3.53;1.92;;;;;;;;;;5054971;28;20041;-76
2022/03/06 10:00:36;;;;;;;3.28;2.40;;;;;;;;;;5055783;28;20048;-77
2022/03/06 10:03:03;;;;;;;7.47;2.40;;;;;;;;;;5071687;28;20047;-75
2022/03/06 10:05:30;;;;;;;2.90;1.98;;;;;;;;;;5071210;28;20094;-78
2022/03/06 10:08:16;;;;;;;3.20;2.33;;;;;;;;;;5070856;28;20041;-79
2022/03/06 10:10:42;;;;;;;2.20;1.80;;;;;;;;;;5054856;28;20059;-78
2022/03/06 10:13:17;;;;;;;3.97;2.60;;;;;;;;;;5071733;28;20066;-76
2022/03/06 10:16:01;;;;;;;1.98;1.88;;;;;;;;;;5071527;28;20048;-79
2022/03/06 10:18:35;;;;;;;2.22;1.75;;;;;;;;;;5073179;28;20041;-76
2022/03/06 10:21:02;;;;;;;4.28;3.35;;;;;;;;;;5071902;28;20131;-77
2022/03/06 10:23:28;;;;;;;2.63;2.38;;;;;;;;;;5071414;28;20496;-77
2022/03/06 10:26:04;;;;;;;2.70;1.13;;;;;;;;;;5071578;28;20044;-75
2022/03/06 10:28:30;;;;;;;3.10;2.10;;;;;;;;;;5055053;28;20048;-74
2022/03/06 10:31:06;;;;;;;3.25;2.28;;;;;;;;;;5054265;28;20056;-77
2022/03/06 10:33:32;;;;;;;2.05;1.50;;;;;;;;;;5070675;28;20097;-80
2022/03/06 10:35:58;;;;;;;2.78;2.42;;;;;;;;;;5054695;28;20455;-77
2022/03/06 10:38:32;;;;;;;1.92;1.55;;;;;;;;;;5070751;28;20040;-73
2022/03/06 10:41:02;;;;;;;4.03;2.15;;;;;;;;;;5070981;28;20128;-78
2022/03/06 10:43:30;;;;;;;4.13;1.98;;;;;;;;;;5070844;28;20032;-77
2022/03/06 10:46:08;;;;;;;1.98;1.77;;;;;;;;;;5056278;28;20117;-78
2022/03/06 10:48:34;;;;;;;6.75;2.35;;;;;;;;;;5056824;28;20174;-79
2022/03/06 10:51:01;;;;;;;4.18;3.38;;;;;;;;;;5054162;28;20045;-77
2022/03/06 10:53:28;;;;;;;3.70;2.90;;;;;;;;;;5071438;28;20050;-78
2022/03/06 10:55:54;;;;;;;2.28;1.77;;;;;;;;;;5054709;28;20044;-80
2022/03/06 10:58:21;;;;;;;1.70;1.60;;;;;;;;;;5056644;28;20477;-80
2022/03/06 11:00:47;;;;;;;1.70;1.60;;;;;;;;;;5075564;28;20127;-80
2022/03/06 11:03:14;;;;;;;2.03;1.52;;;;;;;;;;5075445;28;20040;-76
2022/03/06 11:05:42;;;;;;;1.63;1.33;;;;;;;;;;5056935;28;20112;-78
2022/03/06 11:08:08;;;;;;;2.95;2.15;;;;;;;;;;5055328;28;20090;-78
2022/03/06 11:10:34;;;;;;;5.75;2.90;;;;;;;;;;5057352;28;20056;-77
2022/03/06 11:13:02;;;;;;;2.05;1.48;;;;;;;;;;5055988;28;20029;-78
2022/03/06 11:15:28;;;;;;;5.82;2.88;;;;;;;;;;5055041;28;20465;-80
2022/03/06 11:17:54;;;;;;;4.25;2.08;;;;;;;;;;5055908;28;20123;-76
2022/03/06 11:20:20;;;;;;;13.32;5.13;;;;;;;;;;5055098;28;20048;-75
2022/03/06 11:22:55;;;;;;;3.47;1.20;;;;;;;;;;5054412;28;20473;-75
2022/03/06 11:25:25;;;;;;;2.58;1.83;;;;;;;;;;5055079;28;20060;-77
2022/03/06 11:27:50;;;;;;;5.10;2.63;;;;;;;;;;5069263;28;20532;-77
2022/03/06 11:30:18;;;;;;;16.08;6.80;;;;;;;;;;5044996;28;20037;-76
2022/03/06 11:32:46;;;;;;;4.45;1.67;;;;;;;;;;5065895;28;20469;-78
2022/03/06 11:35:18;;;;;;;4.32;2.20;;;;;;;;;;5041428;28;20095;-74
2022/03/06 11:37:57;;;;;;;2.78;1.23;;;;;;;;;;5037832;28;20136;-77
2022/03/06 11:40:45;;;;;;;2.47;2.28;;;;;;;;;;5038172;28;20127;-79
2022/03/06 11:43:11;;;;;;;2.78;1.90;;;;;;;;;;5055833;28;20040;-80
2022/03/06 11:45:48;;;;;;;2.28;2.10;;;;;;;;;;5056619;28;20041;-80
2022/03/06 11:48:24;;;;;;;2.15;1.95;;;;;;;;;;5034551;28;20045;-77
2022/03/06 11:51:09;;;;;;;2.03;1.50;;;;;;;;;;5053560;28;20404;-79
2022/03/06 11:53:50;;;;;;;1.98;1.73;;;;;;;;;;5034651;28;20045;-78
2022/03/06 11:56:16;;;;;;;;;;;;;;;;;;5034588;28;20041;-78
2022/03/06 11:58:55;;;;;;;3.33;2.83;;;;;;;;;;5037458;28;20026;-80
2022/03/06 12:01:27;;;;;;;2.50;1.67;;;;;;;;;;5051808;28;20078;-79
2022/03/06 12:04:12;;;;;;;4.80;1.83;;;;;;;;;;5035093;28;20075;-77
2022/03/06 12:06:42;;;;;;;1.73;1.60;;;;;;;;;;5050424;28;20045;-76
2022/03/06 12:09:15;;;;;;;4.25;2.78;;;;;;;;;;5034944;28;20523;-77
2022/03/06 12:11:41;;;;;;;2.50;2.15;;;;;;;;;;5050651;28;20057;-79
2022/03/06 12:14:26;;;;;;;4.57;2.78;;;;;;;;;;5034523;28;20052;-76
2022/03/06 12:17:04;;;;;;;2.53;1.98;;;;;;;;;;5035918;28;20056;-78
2022/03/06 12:19:50;;;;;;;3.25;2.20;;;;;;;;;;5051068;28;20056;-80
2022/03/06 12:22:20;;;;;;;2.65;2.00;;;;;;;;;;5032500;28;20049;-77
2022/03/06 12:24:47;;;;;;;3.78;1.92;;;;;;;;;;5033124;28;20041;-76
2022/03/06 12:27:17;;;;;;;2.22;1.85;;;;;;;;;;5033423;28;20049;-79
2022/03/06 12:29:46;;;;;;;2.97;2.70;;;;;;;;;;5052413;28;20102;-77
2022/03/06 12:32:32;;;;;;;3.80;2.35;;;;;;;;;;5033644;28;20068;-78
2022/03/06 12:35:10;;;;;;;2.08;1.60;;;;;;;;;;5048950;28;20126;-77
2022/03/06 12:37:53;;;;;;;2.85;2.15;;;;;;;;;;5036720;28;20045;-78
2022/03/06 12:40:24;;;;;;;3.65;3.08;;;;;;;;;;5050024;28;20041;-78
2022/03/06 12:42:59;;;;;;;6.53;4.15;;;;;;;;;;5033097;28;20059;-76
2022/03/06 12:45:25;;;;;;;5.47;3.38;;;;;;;;;;5035536;28;20795;-76
2022/03/06 12:47:51;;;;;;;1.40;1.30;;;;;;;;;;5035659;28;20105;-78
2022/03/06 12:50:19;;;;;;;2.15;1.92;;;;;;;;;;5034866;28;20087;-77
2022/03/06 12:52:45;;;;;;;3.20;2.33;;;;;;;;;;5032634;28;20489;-76
2022/03/06 12:55:16;;;;;;;2.38;2.17;;;;;;;;;;5032581;28;20048;-78
2022/03/06 12:57:43;;;;;;;1.83;1.70;;;;;;;;;;5032206;28;20500;-77
2022/03/06 13:00:11;;;;;;;4.93;2.38;;;;;;;;;;5048313;28;20349;-77
2022/03/06 13:02:37;;;;;;;5.13;2.70;;;;;;;;;;5049424;28;20037;-75
2022/03/06 13:05:04;;;;;;;3.47;2.67;;;;;;;;;;5032462;28;20383;-77
2022/03/06 13:07:31;;;;;;;3.15;2.35;;;;;;;;;;5032390;28;20570;-79
2022/03/06 13:09:57;;;;;;;1.88;1.65;;;;;;;;;;5032173;28;20405;-77
2022/03/06 13:12:23;;;;;;;5.90;3.53;;;;;;;;;;5048056;28;20061;-73
2022/03/06 13:14:49;;;;;;;3.00;1.90;;;;;;;;;;5033348;28;20044;-79
2022/03/06 13:17:18;;;;;;;2.00;1.48;;;;;;;;;;5032295;28;20041;-76
2022/03/06 13:19:48;;;;;;;2.35;1.63;;;;;;;;;;5032175;28;20044;-79
2022/03/06 13:22:15;;;;;;;2.80;2.20;;;;;;;;;;5032834;28;20041;-78
2022/03/06 13:24:48;;;;;;;2.72;1.58;;;;;;;;;;5049000;28;20404;-77
2022/03/06 13:27:24;;;;;;;3.38;1.83;;;;;;;;;;5049192;28;20049;-78
2022/03/06 13:30:14;;;;;;;2.92;1.65;;;;;;;;;;5032786;28;20554;-80
2022/03/06 13:32:49;;;;;;;4.38;2.33;;;;;;;;;;5049890;28;20052;-78
2022/03/06 13:35:27;;;;;;;3.30;2.08;;;;;;;;;;5032970;28;20137;-77
2022/03/06 13:37:57;;;;;;;2.42;1.95;;;;;;;;;;5048306;28;20182;-75
2022/03/06 13:40:24;;;;;;;4.45;2.92;;;;;;;;;;5031571;28;20075;-77
2022/03/06 13:42:51;;;;;;;7.30;1.77;;;;;;;;;;5048894;28;20186;-78
2022/03/06 13:45:17;;;;;;;7.63;3.10;;;;;;;;;;5031586;28;20488;-75
2022/03/06 13:47:44;;;;;;;2.42;2.13;;;;;;;;;;5031037;28;20060;-79
2022/03/06 13:50:17;;;;;;;3.78;2.63;;;;;;;;;;5048223;28;20045;-80
2022/03/06 13:52:43;;;;;;;4.00;2.45;;;;;;;;;;5031810;28;20045;-77
2022/03/06 13:55:11;;;;;;;2.47;1.65;;;;;;;;;;5031101;28;20558;-78
2022/03/06 13:57:37;;;;;;;2.67;2.05;;;;;;;;;;5030999;28;20041;-77
2022/03/06 14:00:23;;;;;;;2.33;1.88;;;;;;;;;;5046558;28;20037;-76
2022/03/06 14:03:00;;;;;;;2.38;1.83;;;;;;;;;;5047715;28;20489;-79
2022/03/06 14:05:31;;;;;;;2.45;1.42;;;;;;;;;;5047917;28;20033;-76
2022/03/06 14:08:10;;;;;;;3.35;2.05;;;;;;;;;;5034663;28;20044;-76
2022/03/06 14:10:43;;;;;;;4.10;1.77;;;;;;;;;;5047896;28;20060;-78
2022/03/06 14:13:29;;;;;;;2.80;1.88;;;;;;;;;;5031605;28;20497;-79
2022/03/06 14:15:57;;;;;;;2.10;1.92;;;;;;;;;;5030475;28;20080;-79
2022/03/06 14:18:30;;;;;;;5.50;3.05;;;;;;;;;;5047436;28;20041;-77
2022/03/06 14:20:56;;;;;;;3.22;2.03;;;;;;;;;;5047693;28;20045;-77
2022/03/06 14:23:22;;;;;;;2.95;2.13;;;;;;;;;;5030357;28;20050;-78
2022/03/06 14:25:48;;;;;;;3.78;2.45;;;;;;;;;;5030547;28;20043;-77
2022/03/06 14:28:14;;;;;;;6.55;2.00;;;;;;;;;;5047463;28;20041;-76
2022/03/06 14:30:40;;;;;;;4.97;3.13;;;;;;;;;;5047401;28;20055;-77
2022/03/06 14:33:10;;;;;;;3.47;2.65;;;;;;;;;;5030875;28;20076;-75
2022/03/06 14:35:36;;;;;;;5.97;1.90;;;;;;;;;;5030210;28;20127;-77
2022/03/06 14:38:02;;;;;;;4.28;2.72;;;;;;;;;;5034028;28;20041;-78
2022/03/06 14:40:28;;;;;;;3.42;2.60;;;;;;;;;;5030233;28;20132;-78
2022/03/06 14:42:54;;;;;;;4.97;1.88;;;;;;;;;;5030215;28;20071;-77